sensor_id;sensor_type;location;lat;lon;timestamp;P1;durP1;ratioP1;P2;durP2;ratioP2
38937;SDS011;24727;51.974;20.868;2023-01-26T00:03:45;39.58;;;21.08;;
38937;SDS011;24727;51.974;20.868;2023-01-26T00:06:12;37.55;;;20.48;;
38937;SDS011;24727;51.974;20.868;2023-01-26T00:08:40;34.40;;;19.40;;
38937;SDS011;24727;51.974;20.868;2023-01-26T00:11:09;32.55;;;18.00;;
38937;SDS011;24727;51.974;20.868;2023-01-26T00:13:37;43.60;;;21.73;;
38937;SDS011;24727;51.974;20.868;2023-01-26T00:16:03;37.47;;;19.17;;
38937;SDS011;24727;51.974;20.868;2023-01-26T00:18:39;46.03;;;23.08;;
38937;SDS011;24727;51.974;20.868;2023-01-26T00:21:06;42.53;;;22.38;;
38937;SDS011;24727;51.974;20.868;2023-01-26T00:23:34;45.97;;;23.63;;
38937;SDS011;24727;51.974;20.868;2023-01-26T00:26:00;38.88;;;20.13;;
38937;SDS011;24727;51.974;20.868;2023-01-26T00:28:27;54.05;;;24.77;;
38937;SDS011;24727;51.974;20.868;2023-01-26T00:30:58;46.63;;;22.83;;
38937;SDS011;24727;51.974;20.868;2023-01-26T00:33:27;32.45;;;16.77;;
38937;SDS011;24727;51.974;20.868;2023-01-26T00:35:54;40.42;;;22.20;;
38937;SDS011;24727;51.974;20.868;2023-01-26T00:38:20;36.08;;;19.02;;
38937;SDS011;24727;51.974;20.868;2023-01-26T00:40:46;41.15;;;22.83;;
38937;SDS011;24727;51.974;20.868;2023-01-26T00:43:18;44.47;;;23.50;;
38937;SDS011;24727;51.974;20.868;2023-01-26T00:45:44;36.97;;;20.95;;
38937;SDS011;24727;51.974;20.868;2023-01-26T00:48:10;45.22;;;22.98;;
38937;SDS011;24727;51.974;20.868;2023-01-26T00:50:37;37.65;;;21.35;;
38937;SDS011;24727;51.974;20.868;2023-01-26T00:53:04;41.65;;;21.95;;
38937;SDS011;24727;51.974;20.868;2023-01-26T00:55:30;39.60;;;19.95;;
38937;SDS011;24727;51.974;20.868;2023-01-26T00:57:57;38.03;;;19.95;;
38937;SDS011;24727;51.974;20.868;2023-01-26T01:00:27;44.75;;;23.25;;
38937;SDS011;24727;51.974;20.868;2023-01-26T01:02:53;39.13;;;19.83;;
38937;SDS011;24727;51.974;20.868;2023-01-26T01:05:27;48.00;;;23.38;;
38937;SDS011;24727;51.974;20.868;2023-01-26T01:07:56;33.75;;;17.88;;
38937;SDS011;24727;51.974;20.868;2023-01-26T01:10:22;41.92;;;21.27;;
38937;SDS011;24727;51.974;20.868;2023-01-26T01:12:50;40.63;;;21.92;;
38937;SDS011;24727;51.974;20.868;2023-01-26T01:15:16;49.88;;;24.65;;
38937;SDS011;24727;51.974;20.868;2023-01-26T01:17:42;47.20;;;23.98;;
38937;SDS011;24727;51.974;20.868;2023-01-26T01:20:09;49.10;;;25.63;;
38937;SDS011;24727;51.974;20.868;2023-01-26T01:22:36;42.83;;;22.45;;
38937;SDS011;24727;51.974;20.868;2023-01-26T01:25:02;47.13;;;23.77;;
38937;SDS011;24727;51.974;20.868;2023-01-26T01:27:36;47.60;;;24.10;;
38937;SDS011;24727;51.974;20.868;2023-01-26T01:30:03;48.60;;;23.63;;
38937;SDS011;24727;51.974;20.868;2023-01-26T01:32:33;46.95;;;24.10;;
38937;SDS011;24727;51.974;20.868;2023-01-26T01:35:00;41.28;;;21.55;;
38937;SDS011;24727;51.974;20.868;2023-01-26T01:37:29;38.42;;;20.60;;
38937;SDS011;24727;51.974;20.868;2023-01-26T01:39:58;48.13;;;23.48;;
38937;SDS011;24727;51.974;20.868;2023-01-26T01:42:25;38.03;;;20.77;;
38937;SDS011;24727;51.974;20.868;2023-01-26T01:48:25;40.70;;;21.90;;
38937;SDS011;24727;51.974;20.868;2023-01-26T01:50:57;37.75;;;19.58;;
38937;SDS011;24727;51.974;20.868;2023-01-26T01:53:31;44.53;;;22.77;;
38937;SDS011;24727;51.974;20.868;2023-01-26T01:56:12;41.38;;;20.88;;
38937;SDS011;24727;51.974;20.868;2023-01-26T01:58:46;31.65;;;17.52;;
38937;SDS011;24727;51.974;20.868;2023-01-26T02:01:14;36.33;;;17.85;;
38937;SDS011;24727;51.974;20.868;2023-01-26T02:03:40;40.65;;;21.30;;
38937;SDS011;24727;51.974;20.868;2023-01-26T02:08:42;39.08;;;20.50;;
38937;SDS011;24727;51.974;20.868;2023-01-26T02:11:19;38.13;;;19.92;;
38937;SDS011;24727;51.974;20.868;2023-01-26T02:13:49;40.83;;;22.27;;
38937;SDS011;24727;51.974;20.868;2023-01-26T02:16:17;45.35;;;22.13;;
38937;SDS011;24727;51.974;20.868;2023-01-26T02:18:43;44.63;;;22.27;;
38937;SDS011;24727;51.974;20.868;2023-01-26T02:21:11;37.67;;;19.25;;
38937;SDS011;24727;51.974;20.868;2023-01-26T02:26:08;43.40;;;22.42;;
38937;SDS011;24727;51.974;20.868;2023-01-26T02:28:40;32.38;;;17.48;;
38937;SDS011;24727;51.974;20.868;2023-01-26T02:31:09;37.25;;;19.52;;
38937;SDS011;24727;51.974;20.868;2023-01-26T02:33:37;36.63;;;18.70;;
38937;SDS011;24727;51.974;20.868;2023-01-26T02:36:04;42.25;;;20.60;;
38937;SDS011;24727;51.974;20.868;2023-01-26T02:38:41;44.58;;;21.77;;
38937;SDS011;24727;51.974;20.868;2023-01-26T02:41:11;45.15;;;20.95;;
38937;SDS011;24727;51.974;20.868;2023-01-26T02:44:02;40.05;;;20.80;;
38937;SDS011;24727;51.974;20.868;2023-01-26T02:46:31;42.58;;;20.80;;
38937;SDS011;24727;51.974;20.868;2023-01-26T02:48:58;41.28;;;19.95;;
38937;SDS011;24727;51.974;20.868;2023-01-26T02:51:43;42.88;;;20.75;;
38937;SDS011;24727;51.974;20.868;2023-01-26T02:54:10;31.95;;;16.67;;
38937;SDS011;24727;51.974;20.868;2023-01-26T02:56:56;32.90;;;18.20;;
38937;SDS011;24727;51.974;20.868;2023-01-26T02:59:21;40.58;;;20.90;;
38937;SDS011;24727;51.974;20.868;2023-01-26T03:01:50;39.53;;;18.40;;
38937;SDS011;24727;51.974;20.868;2023-01-26T03:04:24;41.53;;;20.20;;
38937;SDS011;24727;51.974;20.868;2023-01-26T03:06:50;41.33;;;21.45;;
38937;SDS011;24727;51.974;20.868;2023-01-26T03:09:18;36.58;;;19.25;;
38937;SDS011;24727;51.974;20.868;2023-01-26T03:11:45;37.67;;;20.50;;
38937;SDS011;24727;51.974;20.868;2023-01-26T03:14:17;41.67;;;20.75;;
38937;SDS011;24727;51.974;20.868;2023-01-26T03:16:43;47.50;;;23.38;;
38937;SDS011;24727;51.974;20.868;2023-01-26T03:19:13;44.42;;;22.90;;
38937;SDS011;24727;51.974;20.868;2023-01-26T03:21:59;40.13;;;20.90;;
38937;SDS011;24727;51.974;20.868;2023-01-26T03:24:44;42.72;;;20.80;;
38937;SDS011;24727;51.974;20.868;2023-01-26T03:27:32;40.70;;;20.33;;
38937;SDS011;24727;51.974;20.868;2023-01-26T03:30:02;42.22;;;20.75;;
38937;SDS011;24727;51.974;20.868;2023-01-26T03:32:29;41.75;;;20.92;;
38937;SDS011;24727;51.974;20.868;2023-01-26T03:34:54;39.83;;;20.52;;
38937;SDS011;24727;51.974;20.868;2023-01-26T03:37:21;42.50;;;21.92;;
38937;SDS011;24727;51.974;20.868;2023-01-26T03:39:48;43.53;;;21.08;;
38937;SDS011;24727;51.974;20.868;2023-01-26T03:42:33;38.95;;;19.15;;
38937;SDS011;24727;51.974;20.868;2023-01-26T03:45:19;43.63;;;20.10;;
38937;SDS011;24727;51.974;20.868;2023-01-26T03:48:05;38.72;;;20.05;;
38937;SDS011;24727;51.974;20.868;2023-01-26T03:50:53;40.13;;;19.52;;
38937;SDS011;24727;51.974;20.868;2023-01-26T03:53:37;31.63;;;18.05;;
38937;SDS011;24727;51.974;20.868;2023-01-26T03:56:22;35.45;;;18.08;;
38937;SDS011;24727;51.974;20.868;2023-01-26T03:58:51;37.20;;;19.40;;
38937;SDS011;24727;51.974;20.868;2023-01-26T04:01:22;39.42;;;18.88;;
38937;SDS011;24727;51.974;20.868;2023-01-26T04:03:55;36.05;;;18.08;;
38937;SDS011;24727;51.974;20.868;2023-01-26T04:06:41;38.00;;;18.35;;
38937;SDS011;24727;51.974;20.868;2023-01-26T04:09:28;31.10;;;16.45;;
38937;SDS011;24727;51.974;20.868;2023-01-26T04:11:54;37.33;;;18.58;;
38937;SDS011;24727;51.974;20.868;2023-01-26T04:14:21;38.50;;;18.63;;
38937;SDS011;24727;51.974;20.868;2023-01-26T04:17:06;39.63;;;18.40;;
38937;SDS011;24727;51.974;20.868;2023-01-26T04:19:51;35.97;;;18.27;;
38937;SDS011;24727;51.974;20.868;2023-01-26T04:22:36;41.00;;;19.15;;
38937;SDS011;24727;51.974;20.868;2023-01-26T04:25:11;38.78;;;19.67;;
38937;SDS011;24727;51.974;20.868;2023-01-26T04:27:39;36.95;;;18.35;;
38937;SDS011;24727;51.974;20.868;2023-01-26T04:30:06;34.53;;;16.52;;
38937;SDS011;24727;51.974;20.868;2023-01-26T04:32:33;41.20;;;20.30;;
38937;SDS011;24727;51.974;20.868;2023-01-26T04:34:59;37.90;;;18.58;;
38937;SDS011;24727;51.974;20.868;2023-01-26T04:37:27;40.90;;;18.73;;
38937;SDS011;24727;51.974;20.868;2023-01-26T04:39:53;33.75;;;16.83;;
38937;SDS011;24727;51.974;20.868;2023-01-26T04:42:19;42.92;;;19.02;;
38937;SDS011;24727;51.974;20.868;2023-01-26T04:44:45;37.80;;;18.10;;
38937;SDS011;24727;51.974;20.868;2023-01-26T04:47:12;36.60;;;18.02;;
38937;SDS011;24727;51.974;20.868;2023-01-26T04:49:45;37.60;;;19.40;;
38937;SDS011;24727;51.974;20.868;2023-01-26T04:52:11;34.75;;;17.73;;
38937;SDS011;24727;51.974;20.868;2023-01-26T04:54:40;41.47;;;19.55;;
38937;SDS011;24727;51.974;20.868;2023-01-26T04:57:07;39.28;;;19.52;;
38937;SDS011;24727;51.974;20.868;2023-01-26T04:59:34;39.10;;;18.77;;
38937;SDS011;24727;51.974;20.868;2023-01-26T05:02:00;40.38;;;20.05;;
38937;SDS011;24727;51.974;20.868;2023-01-26T05:04:28;42.95;;;19.42;;
38937;SDS011;24727;51.974;20.868;2023-01-26T05:06:54;40.42;;;19.85;;
38937;SDS011;24727;51.974;20.868;2023-01-26T05:09:20;33.90;;;17.50;;
38937;SDS011;24727;51.974;20.868;2023-01-26T05:11:46;44.47;;;20.48;;
38937;SDS011;24727;51.974;20.868;2023-01-26T05:14:12;41.35;;;19.70;;
38937;SDS011;24727;51.974;20.868;2023-01-26T05:16:39;39.53;;;19.30;;
38937;SDS011;24727;51.974;20.868;2023-01-26T05:19:05;41.10;;;19.48;;
38937;SDS011;24727;51.974;20.868;2023-01-26T05:21:32;44.13;;;21.75;;
38937;SDS011;24727;51.974;20.868;2023-01-26T05:23:59;27.90;;;15.70;;
38937;SDS011;24727;51.974;20.868;2023-01-26T05:26:26;37.35;;;18.25;;
38937;SDS011;24727;51.974;20.868;2023-01-26T05:28:52;37.40;;;17.83;;
38937;SDS011;24727;51.974;20.868;2023-01-26T05:31:17;41.30;;;20.33;;
38937;SDS011;24727;51.974;20.868;2023-01-26T05:33:44;50.00;;;22.73;;
38937;SDS011;24727;51.974;20.868;2023-01-26T05:36:11;49.88;;;21.63;;
38937;SDS011;24727;51.974;20.868;2023-01-26T05:38:37;47.30;;;21.65;;
38937;SDS011;24727;51.974;20.868;2023-01-26T05:41:05;48.25;;;22.67;;
38937;SDS011;24727;51.974;20.868;2023-01-26T05:43:31;31.77;;;16.13;;
38937;SDS011;24727;51.974;20.868;2023-01-26T05:45:57;49.50;;;19.27;;
38937;SDS011;24727;51.974;20.868;2023-01-26T05:48:23;48.38;;;23.95;;
38937;SDS011;24727;51.974;20.868;2023-01-26T05:50:49;42.78;;;21.50;;
38937;SDS011;24727;51.974;20.868;2023-01-26T05:53:15;42.95;;;21.00;;
38937;SDS011;24727;51.974;20.868;2023-01-26T05:55:41;38.17;;;17.90;;
38937;SDS011;24727;51.974;20.868;2023-01-26T05:58:07;49.83;;;22.17;;
38937;SDS011;24727;51.974;20.868;2023-01-26T06:00:34;47.58;;;24.23;;
38937;SDS011;24727;51.974;20.868;2023-01-26T06:03:01;45.55;;;22.52;;
38937;SDS011;24727;51.974;20.868;2023-01-26T06:05:28;44.50;;;20.98;;
38937;SDS011;24727;51.974;20.868;2023-01-26T06:07:53;39.80;;;20.65;;
38937;SDS011;24727;51.974;20.868;2023-01-26T06:10:19;42.05;;;20.02;;
38937;SDS011;24727;51.974;20.868;2023-01-26T06:12:45;52.10;;;23.90;;
38937;SDS011;24727;51.974;20.868;2023-01-26T06:15:11;51.97;;;24.55;;
38937;SDS011;24727;51.974;20.868;2023-01-26T06:17:37;50.67;;;21.92;;
38937;SDS011;24727;51.974;20.868;2023-01-26T06:20:04;49.20;;;22.55;;
38937;SDS011;24727;51.974;20.868;2023-01-26T06:22:31;32.38;;;16.42;;
38937;SDS011;24727;51.974;20.868;2023-01-26T06:24:57;48.53;;;22.17;;
38937;SDS011;24727;51.974;20.868;2023-01-26T06:27:23;47.53;;;22.40;;
38937;SDS011;24727;51.974;20.868;2023-01-26T06:29:49;39.13;;;18.38;;
38937;SDS011;24727;51.974;20.868;2023-01-26T06:32:15;35.03;;;18.02;;
38937;SDS011;24727;51.974;20.868;2023-01-26T06:34:42;43.92;;;19.90;;
38937;SDS011;24727;51.974;20.868;2023-01-26T06:37:09;42.60;;;19.45;;
38937;SDS011;24727;51.974;20.868;2023-01-26T06:39:35;33.53;;;16.27;;
38937;SDS011;24727;51.974;20.868;2023-01-26T06:42:02;38.58;;;18.92;;
38937;SDS011;24727;51.974;20.868;2023-01-26T06:44:30;38.97;;;18.75;;
38937;SDS011;24727;51.974;20.868;2023-01-26T06:46:55;38.47;;;17.42;;
38937;SDS011;24727;51.974;20.868;2023-01-26T06:49:21;39.55;;;18.67;;
38937;SDS011;24727;51.974;20.868;2023-01-26T06:51:56;39.63;;;17.58;;
38937;SDS011;24727;51.974;20.868;2023-01-26T06:54:27;36.60;;;17.83;;
38937;SDS011;24727;51.974;20.868;2023-01-26T06:56:53;29.30;;;15.30;;
38937;SDS011;24727;51.974;20.868;2023-01-26T06:59:19;37.97;;;18.13;;
38937;SDS011;24727;51.974;20.868;2023-01-26T07:01:45;41.20;;;16.90;;
38937;SDS011;24727;51.974;20.868;2023-01-26T07:04:13;32.35;;;16.27;;
38937;SDS011;24727;51.974;20.868;2023-01-26T07:06:41;33.97;;;16.52;;
38937;SDS011;24727;51.974;20.868;2023-01-26T07:09:08;33.30;;;15.40;;
38937;SDS011;24727;51.974;20.868;2023-01-26T07:11:35;29.40;;;15.10;;
38937;SDS011;24727;51.974;20.868;2023-01-26T07:14:01;31.73;;;15.50;;
38937;SDS011;24727;51.974;20.868;2023-01-26T07:16:28;29.45;;;14.65;;
38937;SDS011;24727;51.974;20.868;2023-01-26T07:18:55;31.52;;;15.18;;
38937;SDS011;24727;51.974;20.868;2023-01-26T07:21:21;29.25;;;13.93;;
38937;SDS011;24727;51.974;20.868;2023-01-26T07:23:48;28.92;;;14.48;;
38937;SDS011;24727;51.974;20.868;2023-01-26T07:26:16;27.77;;;14.23;;
38937;SDS011;24727;51.974;20.868;2023-01-26T07:28:44;24.50;;;12.38;;
38937;SDS011;24727;51.974;20.868;2023-01-26T07:31:11;24.42;;;11.45;;
38937;SDS011;24727;51.974;20.868;2023-01-26T07:33:38;26.65;;;12.75;;
38937;SDS011;24727;51.974;20.868;2023-01-26T07:36:04;26.70;;;12.95;;
38937;SDS011;24727;51.974;20.868;2023-01-26T07:38:31;21.77;;;11.40;;
38937;SDS011;24727;51.974;20.868;2023-01-26T07:40:58;21.13;;;11.68;;
38937;SDS011;24727;51.974;20.868;2023-01-26T07:43:35;20.55;;;10.52;;
38937;SDS011;24727;51.974;20.868;2023-01-26T07:46:03;19.70;;;9.90;;
38937;SDS011;24727;51.974;20.868;2023-01-26T07:48:32;20.45;;;10.02;;
38937;SDS011;24727;51.974;20.868;2023-01-26T07:53:40;23.60;;;10.93;;
38937;SDS011;24727;51.974;20.868;2023-01-26T07:56:12;21.38;;;10.93;;
38937;SDS011;24727;51.974;20.868;2023-01-26T07:58:40;20.20;;;10.20;;
38937;SDS011;24727;51.974;20.868;2023-01-26T08:01:12;18.27;;;9.90;;
38937;SDS011;24727;51.974;20.868;2023-01-26T08:03:39;15.82;;;9.73;;
38937;SDS011;24727;51.974;20.868;2023-01-26T08:06:06;21.98;;;10.48;;
38937;SDS011;24727;51.974;20.868;2023-01-26T08:08:34;19.30;;;10.32;;
38937;SDS011;24727;51.974;20.868;2023-01-26T08:13:30;19.55;;;10.00;;
38937;SDS011;24727;51.974;20.868;2023-01-26T08:16:12;19.38;;;9.93;;
38937;SDS011;24727;51.974;20.868;2023-01-26T08:18:38;19.15;;;10.02;;
38937;SDS011;24727;51.974;20.868;2023-01-26T08:21:08;19.50;;;9.57;;
38937;SDS011;24727;51.974;20.868;2023-01-26T08:23:36;19.90;;;9.43;;
38937;SDS011;24727;51.974;20.868;2023-01-26T08:26:04;19.05;;;10.35;;
38937;SDS011;24727;51.974;20.868;2023-01-26T08:28:32;18.90;;;10.20;;
38937;SDS011;24727;51.974;20.868;2023-01-26T08:31:05;18.23;;;10.27;;
38937;SDS011;24727;51.974;20.868;2023-01-26T08:33:33;18.75;;;10.07;;
38937;SDS011;24727;51.974;20.868;2023-01-26T08:36:03;18.83;;;9.55;;
38937;SDS011;24727;51.974;20.868;2023-01-26T08:38:31;21.52;;;11.27;;
38937;SDS011;24727;51.974;20.868;2023-01-26T08:40:58;25.85;;;10.98;;
38937;SDS011;24727;51.974;20.868;2023-01-26T08:43:26;20.80;;;9.88;;
38937;SDS011;24727;51.974;20.868;2023-01-26T08:45:54;19.15;;;10.52;;
38937;SDS011;24727;51.974;20.868;2023-01-26T08:48:21;17.85;;;9.60;;
38937;SDS011;24727;51.974;20.868;2023-01-26T08:50:52;15.77;;;9.27;;
38937;SDS011;24727;51.974;20.868;2023-01-26T10:22:15;15.38;;;9.88;;
38937;SDS011;24727;51.974;20.868;2023-01-26T10:25:19;13.13;;;8.88;;
38937;SDS011;24727;51.974;20.868;2023-01-26T10:27:53;15.43;;;9.73;;
38937;SDS011;24727;51.974;20.868;2023-01-26T10:30:21;19.35;;;9.07;;
38937;SDS011;24727;51.974;20.868;2023-01-26T10:32:53;16.95;;;9.43;;
38937;SDS011;24727;51.974;20.868;2023-01-26T10:35:32;14.70;;;9.40;;
38937;SDS011;24727;51.974;20.868;2023-01-26T10:37:59;16.77;;;9.32;;
38937;SDS011;24727;51.974;20.868;2023-01-26T10:40:26;16.90;;;9.45;;
38937;SDS011;24727;51.974;20.868;2023-01-26T10:43:02;14.85;;;8.95;;
38937;SDS011;24727;51.974;20.868;2023-01-26T10:45:29;17.85;;;10.20;;
38937;SDS011;24727;51.974;20.868;2023-01-26T10:48:04;17.70;;;9.38;;
38937;SDS011;24727;51.974;20.868;2023-01-26T10:50:49;16.92;;;9.35;;
38937;SDS011;24727;51.974;20.868;2023-01-26T10:53:22;15.73;;;8.52;;
38937;SDS011;24727;51.974;20.868;2023-01-26T10:56:03;16.52;;;10.02;;
38937;SDS011;24727;51.974;20.868;2023-01-26T10:58:44;15.48;;;9.18;;
38937;SDS011;24727;51.974;20.868;2023-01-26T11:01:15;18.83;;;10.52;;
38937;SDS011;24727;51.974;20.868;2023-01-26T11:06:47;21.75;;;11.32;;
38937;SDS011;24727;51.974;20.868;2023-01-26T11:11:55;17.02;;;10.07;;
38937;SDS011;24727;51.974;20.868;2023-01-26T11:14:25;16.95;;;10.05;;
38937;SDS011;24727;51.974;20.868;2023-01-26T11:22:30;19.33;;;10.82;;
38937;SDS011;24727;51.974;20.868;2023-01-26T11:30:32;22.25;;;11.23;;
38937;SDS011;24727;51.974;20.868;2023-01-26T11:33:34;21.27;;;11.07;;
38937;SDS011;24727;51.974;20.868;2023-01-26T12:00:26;17.42;;;10.55;;
38937;SDS011;24727;51.974;20.868;2023-01-26T12:03:26;20.02;;;11.88;;
38937;SDS011;24727;51.974;20.868;2023-01-26T12:06:13;23.70;;;12.32;;
38937;SDS011;24727;51.974;20.868;2023-01-26T12:08:59;19.10;;;11.80;;
38937;SDS011;24727;51.974;20.868;2023-01-26T12:11:30;21.80;;;11.45;;
38937;SDS011;24727;51.974;20.868;2023-01-26T12:25:43;20.45;;;12.10;;
38937;SDS011;24727;51.974;20.868;2023-01-26T12:28:19;21.98;;;11.93;;
38937;SDS011;24727;51.974;20.868;2023-01-26T12:31:23;18.98;;;11.75;;
38937;SDS011;24727;51.974;20.868;2023-01-26T12:33:51;18.42;;;12.02;;
38937;SDS011;24727;51.974;20.868;2023-01-26T12:39:14;18.63;;;11.35;;
38937;SDS011;24727;51.974;20.868;2023-01-26T12:47:21;25.15;;;12.40;;
38937;SDS011;24727;51.974;20.868;2023-01-26T12:52:33;21.48;;;11.68;;
38937;SDS011;24727;51.974;20.868;2023-01-26T12:58:16;26.77;;;13.98;;
38937;SDS011;24727;51.974;20.868;2023-01-26T13:03:27;25.30;;;13.00;;
38937;SDS011;24727;51.974;20.868;2023-01-26T13:22:55;27.60;;;13.77;;
38937;SDS011;24727;51.974;20.868;2023-01-26T13:30:33;24.95;;;14.60;;
38937;SDS011;24727;51.974;20.868;2023-01-26T13:33:12;19.77;;;11.88;;
38937;SDS011;24727;51.974;20.868;2023-01-26T13:35:49;24.10;;;13.35;;
38937;SDS011;24727;51.974;20.868;2023-01-26T13:41:20;20.48;;;11.68;;
38937;SDS011;24727;51.974;20.868;2023-01-26T13:43:58;20.70;;;10.98;;
38937;SDS011;24727;51.974;20.868;2023-01-26T13:46:51;21.38;;;11.18;;
38937;SDS011;24727;51.974;20.868;2023-01-26T13:52:15;20.08;;;11.40;;
38937;SDS011;24727;51.974;20.868;2023-01-26T13:54:56;18.52;;;10.35;;
38937;SDS011;24727;51.974;20.868;2023-01-26T13:59:59;19.40;;;12.55;;
38937;SDS011;24727;51.974;20.868;2023-01-26T14:02:31;19.80;;;12.35;;
38937;SDS011;24727;51.974;20.868;2023-01-26T14:04:59;25.52;;;11.85;;
38937;SDS011;24727;51.974;20.868;2023-01-26T14:07:31;20.30;;;11.82;;
38937;SDS011;24727;51.974;20.868;2023-01-26T14:10:03;21.27;;;12.15;;
38937;SDS011;24727;51.974;20.868;2023-01-26T14:12:41;20.95;;;12.00;;
38937;SDS011;24727;51.974;20.868;2023-01-26T14:15:19;27.85;;;12.70;;
38937;SDS011;24727;51.974;20.868;2023-01-26T14:18:02;23.90;;;11.85;;
38937;SDS011;24727;51.974;20.868;2023-01-26T14:20:37;28.77;;;16.05;;
38937;SDS011;24727;51.974;20.868;2023-01-26T14:25:39;51.88;;;15.25;;
38937;SDS011;24727;51.974;20.868;2023-01-26T14:28:13;24.70;;;12.75;;
38937;SDS011;24727;51.974;20.868;2023-01-26T14:30:40;33.60;;;12.77;;
38937;SDS011;24727;51.974;20.868;2023-01-26T14:33:15;22.95;;;13.48;;
38937;SDS011;24727;51.974;20.868;2023-01-26T14:35:42;31.50;;;17.70;;
38937;SDS011;24727;51.974;20.868;2023-01-26T14:38:29;23.40;;;12.57;;
38937;SDS011;24727;51.974;20.868;2023-01-26T14:41:10;22.23;;;11.95;;
38937;SDS011;24727;51.974;20.868;2023-01-26T14:43:49;19.35;;;12.00;;
38937;SDS011;24727;51.974;20.868;2023-01-26T14:51:38;26.90;;;12.07;;
38937;SDS011;24727;51.974;20.868;2023-01-26T14:54:19;23.10;;;12.18;;
38937;SDS011;24727;51.974;20.868;2023-01-26T14:57:04;22.63;;;11.88;;
38937;SDS011;24727;51.974;20.868;2023-01-26T14:59:37;24.35;;;12.63;;
38937;SDS011;24727;51.974;20.868;2023-01-26T15:04:49;22.55;;;11.73;;
38937;SDS011;24727;51.974;20.868;2023-01-26T15:07:35;25.15;;;12.20;;
38937;SDS011;24727;51.974;20.868;2023-01-26T15:10:31;23.15;;;11.93;;
38937;SDS011;24727;51.974;20.868;2023-01-26T15:13:24;21.25;;;11.88;;
38937;SDS011;24727;51.974;20.868;2023-01-26T15:16:02;19.83;;;11.90;;
38937;SDS011;24727;51.974;20.868;2023-01-26T15:18:31;19.88;;;11.77;;
38937;SDS011;24727;51.974;20.868;2023-01-26T15:26:06;19.15;;;11.38;;
38937;SDS011;24727;51.974;20.868;2023-01-26T15:28:53;21.15;;;12.57;;
38937;SDS011;24727;51.974;20.868;2023-01-26T15:31:27;19.45;;;11.32;;
38937;SDS011;24727;51.974;20.868;2023-01-26T15:34:01;20.75;;;11.63;;
38937;SDS011;24727;51.974;20.868;2023-01-26T15:39:15;20.15;;;12.52;;
38937;SDS011;24727;51.974;20.868;2023-01-26T15:42:09;18.90;;;10.50;;
38937;SDS011;24727;51.974;20.868;2023-01-26T15:44:40;18.67;;;11.70;;
38937;SDS011;24727;51.974;20.868;2023-01-26T15:47:10;20.92;;;11.25;;
38937;SDS011;24727;51.974;20.868;2023-01-26T15:49:41;23.27;;;11.88;;
38937;SDS011;24727;51.974;20.868;2023-01-26T15:52:10;24.25;;;11.95;;
38937;SDS011;24727;51.974;20.868;2023-01-26T15:54:40;20.80;;;12.50;;
38937;SDS011;24727;51.974;20.868;2023-01-26T15:57:10;20.83;;;12.02;;
38937;SDS011;24727;51.974;20.868;2023-01-26T15:59:37;19.50;;;11.65;;
38937;SDS011;24727;51.974;20.868;2023-01-26T16:02:05;20.95;;;11.60;;
38937;SDS011;24727;51.974;20.868;2023-01-26T16:04:38;18.95;;;11.45;;
38937;SDS011;24727;51.974;20.868;2023-01-26T16:07:13;27.58;;;12.80;;
38937;SDS011;24727;51.974;20.868;2023-01-26T16:09:41;22.42;;;12.70;;
38937;SDS011;24727;51.974;20.868;2023-01-26T16:12:09;19.45;;;11.73;;
38937;SDS011;24727;51.974;20.868;2023-01-26T16:14:41;18.45;;;11.02;;
38937;SDS011;24727;51.974;20.868;2023-01-26T16:17:13;20.98;;;11.48;;
38937;SDS011;24727;51.974;20.868;2023-01-26T16:19:42;16.70;;;10.25;;
38937;SDS011;24727;51.974;20.868;2023-01-26T16:22:08;18.85;;;10.60;;
38937;SDS011;24727;51.974;20.868;2023-01-26T16:24:36;20.13;;;11.70;;
38937;SDS011;24727;51.974;20.868;2023-01-26T16:27:03;19.95;;;11.90;;
38937;SDS011;24727;51.974;20.868;2023-01-26T16:29:30;18.05;;;10.13;;
38937;SDS011;24727;51.974;20.868;2023-01-26T16:31:57;19.90;;;11.15;;
38937;SDS011;24727;51.974;20.868;2023-01-26T16:34:25;17.75;;;10.60;;
38937;SDS011;24727;51.974;20.868;2023-01-26T16:36:51;16.25;;;9.93;;
38937;SDS011;24727;51.974;20.868;2023-01-26T16:39:17;16.77;;;10.40;;
38937;SDS011;24727;51.974;20.868;2023-01-26T16:41:44;16.80;;;10.40;;
38937;SDS011;24727;51.974;20.868;2023-01-26T16:44:14;18.60;;;10.30;;
38937;SDS011;24727;51.974;20.868;2023-01-26T16:46:45;19.25;;;10.07;;
38937;SDS011;24727;51.974;20.868;2023-01-26T16:49:12;19.15;;;10.18;;
38937;SDS011;24727;51.974;20.868;2023-01-26T16:51:42;16.13;;;9.73;;
38937;SDS011;24727;51.974;20.868;2023-01-26T16:54:10;16.05;;;9.73;;
38937;SDS011;24727;51.974;20.868;2023-01-26T16:56:37;14.98;;;9.88;;
38937;SDS011;24727;51.974;20.868;2023-01-26T16:59:02;15.90;;;9.07;;
38937;SDS011;24727;51.974;20.868;2023-01-26T17:01:31;15.57;;;9.55;;
38937;SDS011;24727;51.974;20.868;2023-01-26T17:04:00;18.45;;;10.25;;
38937;SDS011;24727;51.974;20.868;2023-01-26T17:08:56;18.52;;;10.23;;
38937;SDS011;24727;51.974;20.868;2023-01-26T17:11:23;17.65;;;9.93;;
38937;SDS011;24727;51.974;20.868;2023-01-26T17:13:51;15.70;;;9.98;;
38937;SDS011;24727;51.974;20.868;2023-01-26T17:16:19;17.15;;;10.52;;
38937;SDS011;24727;51.974;20.868;2023-01-26T17:18:54;17.52;;;10.48;;
38937;SDS011;24727;51.974;20.868;2023-01-26T17:21:21;18.70;;;10.38;;
38937;SDS011;24727;51.974;20.868;2023-01-26T17:23:50;17.38;;;9.88;;
38937;SDS011;24727;51.974;20.868;2023-01-26T17:26:18;18.88;;;10.73;;
38937;SDS011;24727;51.974;20.868;2023-01-26T17:28:46;17.33;;;9.13;;
38937;SDS011;24727;51.974;20.868;2023-01-26T17:31:16;17.13;;;9.02;;
38937;SDS011;24727;51.974;20.868;2023-01-26T17:33:44;19.40;;;9.27;;
38937;SDS011;24727;51.974;20.868;2023-01-26T17:36:11;16.73;;;9.13;;
38937;SDS011;24727;51.974;20.868;2023-01-26T17:38:39;15.43;;;9.57;;
38937;SDS011;24727;51.974;20.868;2023-01-26T17:41:06;16.92;;;9.32;;
38937;SDS011;24727;51.974;20.868;2023-01-26T17:43:34;15.13;;;9.15;;
38937;SDS011;24727;51.974;20.868;2023-01-26T17:46:08;13.48;;;8.68;;
38937;SDS011;24727;51.974;20.868;2023-01-26T17:48:40;13.57;;;8.52;;
38937;SDS011;24727;51.974;20.868;2023-01-26T17:51:09;13.85;;;8.38;;
38937;SDS011;24727;51.974;20.868;2023-01-26T17:53:40;13.95;;;8.63;;
38937;SDS011;24727;51.974;20.868;2023-01-26T17:56:08;14.20;;;8.18;;
38937;SDS011;24727;51.974;20.868;2023-01-26T17:58:36;12.77;;;8.07;;
38937;SDS011;24727;51.974;20.868;2023-01-26T18:01:06;15.25;;;8.50;;
38937;SDS011;24727;51.974;20.868;2023-01-26T18:03:34;14.02;;;8.50;;
38937;SDS011;24727;51.974;20.868;2023-01-26T18:06:04;13.77;;;8.57;;
38937;SDS011;24727;51.974;20.868;2023-01-26T18:08:30;13.00;;;7.65;;
38937;SDS011;24727;51.974;20.868;2023-01-26T18:10:57;13.63;;;7.72;;
38937;SDS011;24727;51.974;20.868;2023-01-26T18:13:25;13.95;;;8.13;;
38937;SDS011;24727;51.974;20.868;2023-01-26T18:15:52;13.63;;;7.50;;
38937;SDS011;24727;51.974;20.868;2023-01-26T18:18:20;15.07;;;8.10;;